Max Supporter — 9HA4064 — position and weather

sailwx.info

Track history (hours):
 
Tides and Currents Weather Stations Pressure Air Temp Water Temp Dewpoint Dewpoint Depression Visibility Wind Speed Wind Dir Waves Ship Positions

Max Supporter

Last reported at 2017-Dec-30 10:05 UTC. Time now 2018-Jan-19 19:47 UTC.
Position N 35°48' E 014°36'.
Warning: this ship's position is 20 days out of date.

Length 127 m; draft 5.8 m.

Type: Cargo ship. MMSI: 249036000.

Date/timePositionNaut miles runAvg speedWind from/ knotsBaromVisibWave heightAir tempDewpointWater temp
2017-Dec-30 10:05N 35°48' E 014°36'1 9.2
2017-Dec-30 09:58N 35°49' E 014°37'510.6
2017-Dec-30 09:30N 35°54' E 014°36'611.7
2017-Dec-30 09:00N 35°58' E 014°31'611.4
2017-Dec-30 08:30N 36°02' E 014°26'511.0
2017-Dec-30 08:00N 36°06' E 014°21'610.9
2017-Dec-30 07:30N 36°10' E 014°16'611.1
2017-Dec-30 07:00N 36°13' E 014°10'611.4
2017-Dec-30 06:30N 36°16' E 014°04'611.5
2017-Dec-30 05:59N 36°19' E 013°58'611.7
2017-Dec-30 05:28N 36°23' E 013°52'  
2017-Dec-25 10:35N 35°59' W 005°13'114.6
2017-Dec-25 10:31N 35°59' W 005°15'815.0
2017-Dec-25 10:00N 35°58' W 005°24'3 0.1
2017-Dec-23 16:13N 36°01' W 005°23'313.9
2017-Dec-23 16:00N 36°02' W 005°19'  
Track history (hours):
 
Tides and Currents Weather Stations Pressure Air Temp Water Temp Dewpoint Dewpoint Depression Visibility Wind Speed Wind Dir Waves Ship Positions

Max Supporter

Last reported at 2017-Dec-30 10:05 UTC. Time now 2018-Jan-19 19:47 UTC.
Position N 35°48' E 014°36'.
Warning: this ship's position is 20 days out of date.

Length 127 m; draft 5.8 m.

Type: Cargo ship. MMSI: 249036000.

Date/timePositionNaut miles runAvg speedWind from/ knotsBaromVisibWave heightAir tempDewpointWater temp
2017-Dec-30 10:05N 35°48' E 014°36'1 9.2
2017-Dec-30 09:58N 35°49' E 014°37'510.6
2017-Dec-30 09:30N 35°54' E 014°36'611.7
2017-Dec-30 09:00N 35°58' E 014°31'611.4
2017-Dec-30 08:30N 36°02' E 014°26'511.0
2017-Dec-30 08:00N 36°06' E 014°21'610.9
2017-Dec-30 07:30N 36°10' E 014°16'611.1
2017-Dec-30 07:00N 36°13' E 014°10'611.4
2017-Dec-30 06:30N 36°16' E 014°04'611.5
2017-Dec-30 05:59N 36°19' E 013°58'611.7
2017-Dec-30 05:28N 36°23' E 013°52'  
2017-Dec-25 10:35N 35°59' W 005°13'114.6
2017-Dec-25 10:31N 35°59' W 005°15'815.0
2017-Dec-25 10:00N 35°58' W 005°24'3 0.1
2017-Dec-23 16:13N 36°01' W 005°23'313.9
2017-Dec-23 16:00N 36°02' W 005°19'  

Dump ship's entire track history